createdAt,value
2023-11-23T00:00:57.626Z,32.78
2023-11-23T00:02:00.894Z,30.55
2023-11-23T00:03:03.083Z,29.63
2023-11-23T00:04:06.540Z,30.58
2023-11-23T00:05:10.130Z,32.08
2023-11-23T00:06:13.357Z,30.60
2023-11-23T00:07:16.918Z,31.73
2023-11-23T00:08:20.960Z,26.33
2023-11-23T00:09:23.086Z,30.67
2023-11-23T00:10:26.202Z,31.38
2023-11-23T00:11:29.205Z,28.48
2023-11-23T00:12:31.431Z,33.20
2023-11-23T00:13:34.570Z,30.98
2023-11-23T00:14:37.273Z,31.23
2023-11-23T00:15:40.343Z,36.97
2023-11-23T00:16:44.707Z,32.70
2023-11-23T00:17:47.008Z,28.65
2023-11-23T00:18:50.231Z,32.80
2023-11-23T00:19:52.406Z,33.75
2023-11-23T00:20:56.465Z,32.67
2023-11-23T00:21:58.707Z,31.48
2023-11-23T00:23:03.135Z,35.22
2023-11-23T00:24:06.503Z,34.65
2023-11-23T00:25:13.422Z,32.00
2023-11-23T00:26:15.683Z,40.00
2023-11-23T00:27:29.720Z,31.25
2023-11-23T00:28:32.104Z,33.53
2023-11-23T00:29:35.414Z,36.08
2023-11-23T00:30:37.520Z,31.33
2023-11-23T00:31:40.682Z,38.38
2023-11-23T00:32:42.924Z,38.33
2023-11-23T00:33:45.374Z,43.92
2023-11-23T00:34:48.801Z,34.13
2023-11-23T00:35:51.176Z,33.35
2023-11-23T00:36:54.372Z,31.65
2023-11-23T00:37:56.594Z,34.28
2023-11-23T00:39:01.008Z,35.25
2023-11-23T00:40:04.177Z,34.97
2023-11-23T00:41:09.060Z,34.13
2023-11-23T00:42:11.273Z,40.13
2023-11-23T00:43:13.606Z,36.15
2023-11-23T00:44:16.897Z,34.50
2023-11-23T00:45:19.145Z,38.55
2023-11-23T00:46:22.278Z,33.90
2023-11-23T00:47:24.425Z,34.58
2023-11-23T00:48:28.464Z,30.92
2023-11-23T00:49:31.124Z,35.72
2023-11-23T00:50:34.314Z,38.15
2023-11-23T00:51:37.902Z,40.70
2023-11-23T00:52:41.062Z,37.67
2023-11-23T00:53:43.185Z,35.53
2023-11-23T00:54:48.600Z,33.47
2023-11-23T00:55:50.880Z,32.53
2023-11-23T00:56:54.022Z,34.67
2023-11-23T00:57:56.152Z,30.50
2023-11-23T00:58:59.336Z,31.58
2023-11-23T01:00:01.591Z,38.70
2023-11-23T01:01:05.343Z,30.55
2023-11-23T01:02:07.626Z,33.00
2023-11-23T01:03:11.073Z,34.30
2023-11-23T01:04:14.629Z,36.67
2023-11-23T01:05:20.050Z,40.03
2023-11-23T01:06:22.220Z,34.15
2023-11-23T01:07:25.284Z,30.35
2023-11-23T01:08:27.349Z,34.53
2023-11-23T01:09:30.454Z,31.90
2023-11-23T01:10:33.957Z,33.63
2023-11-23T01:11:37.164Z,36.97
2023-11-23T01:12:39.337Z,31.20
2023-11-23T01:13:42.937Z,33.75
2023-11-23T01:14:46.140Z,33.63
2023-11-23T01:15:48.347Z,32.58
2023-11-23T01:16:51.554Z,31.20
2023-11-23T01:17:53.882Z,38.10
2023-11-23T01:18:57.091Z,30.70
2023-11-23T01:19:59.272Z,36.83
2023-11-23T01:21:02.532Z,37.60
2023-11-23T01:22:04.995Z,35.67
2023-11-23T01:23:08.119Z,35.33
2023-11-23T01:24:13.078Z,35.00
2023-11-23T01:25:16.462Z,32.90
2023-11-23T01:26:19.950Z,39.97
2023-11-23T01:27:23.130Z,34.38
2023-11-23T01:28:25.175Z,31.52
2023-11-23T01:29:28.321Z,35.00
2023-11-23T01:30:30.661Z,38.83
2023-11-23T01:31:33.933Z,38.20
2023-11-23T01:32:36.198Z,37.25
2023-11-23T01:33:39.554Z,31.60
2023-11-23T01:34:41.675Z,31.17
2023-11-23T01:35:43.893Z,32.03
2023-11-23T01:36:47.019Z,36.63
2023-11-23T01:37:49.134Z,35.25
2023-11-23T01:38:52.224Z,34.20
2023-11-23T01:39:54.475Z,30.83
2023-11-23T01:40:57.641Z,33.22
2023-11-23T01:42:01.113Z,34.53
2023-11-23T01:43:04.579Z,35.92
2023-11-23T01:44:06.793Z,28.77
2023-11-23T01:45:10.806Z,29.48
2023-11-23T01:46:12.960Z,36.80
2023-11-23T01:47:16.369Z,37.80
2023-11-23T01:48:19.292Z,35.30
2023-11-23T01:49:23.801Z,29.27
2023-11-23T01:50:26.653Z,30.15
2023-11-23T01:51:30.008Z,29.80
2023-11-23T01:52:32.213Z,33.58
2023-11-23T01:53:35.397Z,35.38
2023-11-23T01:54:37.635Z,33.08
2023-11-23T01:55:40.775Z,30.42
2023-11-23T01:56:43.638Z,31.63
2023-11-23T01:57:49.135Z,33.38
2023-11-23T01:58:51.438Z,29.95
2023-11-23T01:59:54.790Z,30.88
2023-11-23T02:00:56.993Z,27.40
2023-11-23T02:02:00.457Z,30.40
2023-11-23T02:03:02.770Z,38.03
2023-11-23T02:04:07.106Z,32.17
2023-11-23T02:05:10.819Z,36.17
2023-11-23T02:06:13.996Z,33.95
2023-11-23T02:07:16.314Z,34.70
2023-11-23T02:08:19.435Z,30.65
2023-11-23T02:09:21.900Z,30.73
2023-11-23T02:10:24.151Z,35.20
2023-11-23T02:11:29.092Z,27.90
2023-11-23T02:12:34.540Z,28.48
2023-11-23T02:13:39.771Z,29.95
2023-11-23T02:14:43.171Z,30.88
2023-11-23T02:15:46.676Z,29.60
2023-11-23T02:16:49.446Z,31.95
2023-11-23T02:18:02.605Z,25.33
2023-11-23T02:19:05.280Z,28.70
2023-11-23T02:20:10.469Z,26.58
2023-11-23T02:21:13.724Z,26.48
2023-11-23T02:22:16.492Z,27.80
2023-11-23T02:23:19.595Z,26.45
2023-11-23T02:24:23.690Z,25.60
2023-11-23T02:25:26.809Z,24.08
2023-11-23T02:26:28.859Z,26.38
2023-11-23T02:27:33.555Z,26.20
2023-11-23T02:28:35.696Z,27.20
2023-11-23T02:29:39.532Z,29.20
2023-11-23T02:30:42.214Z,27.02
2023-11-23T02:31:45.550Z,28.13
2023-11-23T02:32:47.736Z,28.25
2023-11-23T02:33:51.577Z,26.55
2023-11-23T02:34:54.929Z,28.15
2023-11-23T02:35:57.048Z,26.33
2023-11-23T02:37:00.251Z,28.00
2023-11-23T02:38:02.431Z,23.15
2023-11-23T02:39:05.868Z,24.05
2023-11-23T02:40:12.113Z,24.05
2023-11-23T02:41:15.112Z,25.17
2023-11-23T02:42:18.354Z,27.23
2023-11-23T02:43:20.595Z,25.50
2023-11-23T02:44:23.794Z,23.38
2023-11-23T02:45:25.906Z,26.35
2023-11-23T02:48:06.757Z,24.65
2023-11-23T02:49:10.456Z,23.63
2023-11-23T02:50:12.845Z,27.25
2023-11-23T02:51:16.578Z,26.70
2023-11-23T02:52:18.728Z,23.40
2023-11-23T02:53:31.453Z,25.40
2023-11-23T02:54:33.820Z,22.83
2023-11-23T02:55:37.676Z,22.70
2023-11-23T02:56:39.872Z,23.27
2023-11-23T02:57:44.240Z,24.50
2023-11-23T02:58:47.936Z,24.88
2023-11-23T02:59:52.576Z,25.73
2023-11-23T03:00:54.929Z,23.95
2023-11-23T03:01:57.794Z,26.77
2023-11-23T03:03:01.211Z,26.98
2023-11-23T03:04:05.879Z,27.20
2023-11-23T03:05:11.664Z,29.40
2023-11-23T03:06:15.445Z,27.50
2023-11-23T03:07:18.934Z,26.35
2023-11-23T03:08:21.566Z,27.05
2023-11-23T03:09:24.767Z,26.17
2023-11-23T03:10:26.856Z,26.17
2023-11-23T03:11:30.096Z,26.40
2023-11-23T03:12:32.268Z,29.27
2023-11-23T03:13:35.344Z,25.70
2023-11-23T03:14:37.473Z,26.90
2023-11-23T03:15:40.929Z,31.75
2023-11-23T03:16:43.636Z,23.83
2023-11-23T03:17:46.873Z,26.88
2023-11-23T03:18:49.310Z,26.58
2023-11-23T03:19:52.991Z,28.10
2023-11-23T03:20:56.289Z,22.52
2023-11-23T03:21:58.958Z,24.27
2023-11-23T03:23:02.027Z,25.83
2023-11-23T03:24:05.662Z,27.13
2023-11-23T03:25:10.307Z,26.88
2023-11-23T03:26:12.409Z,26.10
2023-11-23T03:27:15.902Z,23.65
2023-11-23T03:28:20.243Z,25.85
2023-11-23T03:29:23.643Z,25.15
2023-11-23T03:30:26.877Z,26.20
2023-11-23T03:31:29.993Z,24.15
2023-11-23T03:32:33.534Z,24.90
2023-11-23T03:33:36.691Z,28.05
2023-11-23T03:34:38.820Z,26.55
2023-11-23T03:35:42.508Z,22.08
2023-11-23T03:36:45.657Z,23.67
2023-11-23T03:37:47.730Z,24.98
2023-11-23T03:38:50.828Z,27.15
2023-11-23T03:39:53.701Z,27.80
2023-11-23T03:40:58.584Z,26.08
2023-11-23T03:42:02.343Z,25.05
2023-11-23T03:43:05.627Z,24.42
2023-11-23T03:44:07.749Z,25.15
2023-11-23T03:45:11.534Z,24.85
2023-11-23T03:46:13.825Z,25.88
2023-11-23T03:47:17.005Z,25.90
2023-11-23T03:48:19.496Z,27.23
2023-11-23T03:49:22.605Z,24.73
2023-11-23T03:50:25.602Z,24.60
2023-11-23T03:51:29.983Z,26.42
2023-11-23T03:52:32.116Z,26.08
2023-11-23T03:53:35.185Z,24.67
2023-11-23T03:54:37.222Z,22.65
2023-11-23T03:55:40.259Z,22.95
2023-11-23T03:56:42.403Z,26.00
2023-11-23T03:57:46.948Z,24.95
2023-11-23T03:58:49.188Z,22.30
2023-11-23T03:59:52.313Z,24.92
2023-11-23T04:00:54.365Z,25.52
2023-11-23T04:01:57.565Z,25.92
2023-11-23T04:03:00.117Z,24.83
2023-11-23T04:04:04.227Z,22.70
2023-11-23T04:05:08.147Z,27.73
2023-11-23T04:06:11.288Z,25.52
2023-11-23T04:07:14.692Z,24.75
2023-11-23T04:08:17.736Z,26.73
2023-11-23T04:09:20.074Z,24.08
2023-11-23T04:10:23.211Z,28.08
2023-11-23T04:11:25.617Z,29.40
2023-11-23T04:12:29.791Z,23.17
2023-11-23T04:13:31.886Z,23.52
2023-11-23T04:14:35.301Z,27.50
2023-11-23T04:15:37.303Z,25.67
2023-11-23T04:16:39.495Z,29.50
2023-11-23T04:17:42.678Z,23.08
2023-11-23T04:18:45.960Z,28.23
2023-11-23T04:19:49.577Z,28.52
2023-11-23T04:20:51.642Z,24.27
2023-11-23T04:21:54.770Z,24.58
2023-11-23T04:22:58.165Z,27.38
2023-11-23T04:24:01.738Z,24.73
2023-11-23T04:25:05.081Z,31.27
2023-11-23T04:26:08.277Z,27.95
2023-11-23T04:27:10.499Z,25.77
2023-11-23T04:28:13.940Z,23.50
2023-11-23T04:29:15.984Z,27.48
2023-11-23T04:30:19.396Z,35.28
2023-11-23T04:31:21.774Z,29.33
2023-11-23T04:32:24.865Z,25.80
2023-11-23T04:33:27.376Z,25.77
2023-11-23T04:34:29.516Z,26.92
2023-11-23T04:35:32.555Z,23.75
2023-11-23T04:36:37.946Z,30.35
2023-11-23T04:37:40.405Z,27.90
2023-11-23T04:38:44.862Z,29.00
2023-11-23T04:39:46.902Z,26.95
2023-11-23T04:40:49.953Z,29.23
2023-11-23T04:41:52.063Z,30.30
2023-11-23T04:42:54.181Z,33.53
2023-11-23T04:43:57.294Z,25.08
2023-11-23T04:44:59.351Z,27.05
2023-11-23T04:46:02.481Z,29.38
2023-11-23T04:47:05.162Z,29.10
2023-11-23T04:48:08.011Z,26.13
2023-11-23T04:49:11.284Z,23.05
2023-11-23T04:50:14.570Z,31.10
2023-11-23T04:51:17.688Z,28.27
2023-11-23T04:52:19.900Z,28.25
2023-11-23T04:53:22.873Z,25.50
2023-11-23T04:54:26.293Z,25.83
2023-11-23T04:55:30.388Z,27.73
2023-11-23T04:56:33.032Z,30.60
2023-11-23T04:57:36.051Z,29.67
2023-11-23T04:58:38.050Z,30.85
2023-11-23T04:59:40.080Z,30.02
2023-11-23T05:00:43.119Z,34.60
2023-11-23T05:01:45.367Z,26.92
2023-11-23T05:02:48.496Z,28.05
2023-11-23T05:03:50.811Z,25.58
2023-11-23T05:04:53.835Z,27.23
2023-11-23T05:05:55.907Z,29.60
2023-11-23T05:06:59.088Z,27.67
2023-11-23T05:08:01.189Z,25.75
2023-11-23T05:09:05.003Z,23.83
2023-11-23T05:10:09.819Z,28.40
2023-11-23T05:11:13.149Z,33.88
2023-11-23T05:12:15.265Z,27.77
2023-11-23T05:13:18.697Z,24.02
2023-11-23T05:14:20.833Z,27.40
2023-11-23T05:15:23.896Z,27.23
2023-11-23T05:16:25.949Z,27.90
2023-11-23T05:17:29.431Z,31.02
2023-11-23T05:18:31.814Z,29.17
2023-11-23T05:19:41.980Z,26.00
2023-11-23T05:20:45.505Z,27.70
2023-11-23T05:21:48.669Z,30.55
2023-11-23T05:22:50.731Z,26.98
2023-11-23T05:23:54.218Z,28.63
2023-11-23T05:24:57.278Z,26.20
2023-11-23T05:26:01.663Z,23.77
2023-11-23T05:27:04.200Z,25.55
2023-11-23T05:28:07.363Z,27.08
2023-11-23T05:29:09.465Z,28.98
2023-11-23T05:30:13.935Z,27.20
2023-11-23T05:31:16.243Z,27.05
2023-11-23T05:32:19.550Z,26.35
2023-11-23T05:33:25.529Z,25.90
2023-11-23T05:34:29.006Z,23.33
2023-11-23T05:35:32.026Z,24.35
2023-11-23T05:36:35.066Z,23.58
2023-11-23T05:37:37.052Z,27.77
2023-11-23T05:38:41.663Z,24.42
2023-11-23T05:39:44.622Z,25.55
2023-11-23T05:40:48.179Z,25.42
2023-11-23T05:41:51.663Z,24.30
2023-11-23T05:43:02.918Z,27.33
2023-11-23T05:44:07.885Z,23.30
2023-11-23T05:45:11.726Z,23.30
2023-11-23T05:46:14.987Z,24.85
2023-11-23T05:47:18.152Z,25.38
2023-11-23T05:48:20.290Z,26.08
2023-11-23T05:49:22.881Z,25.52
2023-11-23T05:50:25.917Z,26.42
2023-11-23T05:51:29.187Z,21.23
2023-11-23T05:52:32.484Z,23.10
2023-11-23T05:53:34.501Z,34.90
2023-11-23T05:54:38.599Z,29.58
2023-11-23T05:55:40.579Z,23.27
2023-11-23T05:56:45.006Z,25.33
2023-11-23T05:57:48.430Z,26.08
2023-11-23T05:58:52.178Z,22.58
2023-11-23T05:59:54.188Z,25.45
2023-11-23T06:01:07.016Z,25.65
2023-11-23T06:02:12.005Z,23.45
2023-11-23T06:03:15.124Z,20.02
2023-11-23T06:04:17.350Z,24.67
2023-11-23T06:05:20.657Z,24.15
2023-11-23T06:06:24.539Z,20.83
2023-11-23T06:07:27.573Z,27.77
2023-11-23T06:08:29.636Z,24.25
2023-11-23T06:09:32.837Z,23.23
2023-11-23T06:10:34.865Z,25.90
2023-11-23T06:11:37.902Z,23.33
2023-11-23T06:12:39.883Z,22.02
2023-11-23T06:13:46.034Z,22.95
2023-11-23T06:14:48.258Z,34.55
2023-11-23T06:15:52.180Z,21.77
2023-11-23T06:16:54.182Z,24.58
2023-11-23T06:18:07.427Z,27.77
2023-11-23T06:19:17.098Z,21.77
2023-11-23T06:20:19.704Z,29.25
2023-11-23T06:21:22.929Z,26.38
2023-11-23T06:22:25.009Z,30.02
2023-11-23T06:23:28.030Z,23.95
2023-11-23T06:24:30.055Z,27.85
2023-11-23T06:25:33.413Z,29.65
2023-11-23T06:26:35.430Z,28.15
2023-11-23T06:27:37.411Z,32.67
2023-11-23T06:28:40.357Z,34.95
2023-11-23T06:29:43.670Z,33.55
2023-11-23T06:30:46.990Z,24.92
2023-11-23T06:31:51.365Z,23.33
2023-11-23T06:32:54.894Z,28.20
2023-11-23T06:33:57.017Z,27.50
2023-11-23T06:35:00.027Z,25.58
2023-11-23T06:36:02.041Z,29.92
2023-11-23T06:37:05.353Z,26.45
2023-11-23T06:38:07.491Z,28.17
2023-11-23T06:39:10.930Z,28.85
2023-11-23T06:40:13.256Z,26.58
2023-11-23T06:41:20.734Z,32.38
2023-11-23T06:42:22.780Z,29.67
2023-11-23T06:43:25.875Z,34.47
2023-11-23T06:44:27.927Z,39.35
2023-11-23T06:45:32.431Z,41.60
2023-11-23T06:46:34.485Z,34.95
2023-11-23T06:47:37.647Z,32.67
2023-11-23T06:48:39.748Z,29.52
2023-11-23T06:49:42.975Z,25.33
2023-11-23T06:50:45.604Z,25.63
2023-11-23T06:51:48.655Z,29.77
2023-11-23T06:52:50.693Z,30.10
2023-11-23T06:53:52.729Z,32.75
2023-11-23T06:54:55.705Z,29.70
2023-11-23T06:56:03.561Z,30.23
2023-11-23T06:57:06.532Z,25.08
2023-11-23T06:58:10.215Z,27.67
2023-11-23T06:59:13.538Z,40.95
2023-11-23T07:00:23.481Z,23.73
2023-11-23T07:01:27.184Z,25.23
2023-11-23T07:02:30.429Z,24.92
2023-11-23T07:03:32.644Z,26.95
2023-11-23T07:04:35.733Z,26.50
2023-11-23T07:05:37.765Z,32.22
2023-11-23T07:06:40.749Z,29.67
2023-11-23T07:07:44.798Z,24.50
2023-11-23T07:08:48.295Z,23.73
2023-11-23T07:09:50.268Z,25.85
2023-11-23T07:10:53.759Z,25.25
2023-11-23T07:11:55.972Z,24.30
2023-11-23T07:12:58.930Z,24.55
2023-11-23T07:14:01.818Z,22.88
2023-11-23T07:15:05.562Z,21.92
2023-11-23T07:16:10.225Z,25.85
2023-11-23T07:17:14.625Z,25.60
2023-11-23T07:18:19.012Z,26.52
2023-11-23T07:19:22.234Z,24.83
2023-11-23T07:20:24.283Z,26.38
2023-11-23T07:21:27.515Z,26.77
2023-11-23T07:22:29.502Z,24.40
2023-11-23T07:23:33.007Z,29.38
2023-11-23T07:24:35.489Z,27.23
2023-11-23T07:25:43.340Z,26.98
2023-11-23T07:26:45.934Z,27.45
2023-11-23T07:27:48.955Z,22.42
2023-11-23T07:28:50.977Z,24.73
2023-11-23T07:29:54.883Z,26.02
2023-11-23T07:30:57.727Z,26.33
2023-11-23T07:32:00.845Z,27.70
2023-11-23T07:33:04.316Z,27.92
2023-11-23T07:34:07.402Z,40.00
2023-11-23T07:35:09.631Z,27.23
2023-11-23T07:36:13.864Z,28.05
2023-11-23T07:37:15.992Z,25.23
2023-11-23T07:38:19.888Z,24.40
2023-11-23T07:39:23.607Z,24.73
2023-11-23T07:40:26.699Z,24.05
2023-11-23T07:41:28.664Z,24.77
2023-11-23T07:42:31.674Z,23.38
2023-11-23T07:43:33.710Z,25.85
2023-11-23T07:44:36.682Z,24.08
2023-11-23T07:45:38.846Z,25.15
2023-11-23T07:46:42.270Z,25.45
2023-11-23T07:47:45.075Z,40.40
2023-11-23T07:48:53.749Z,25.60
2023-11-23T07:49:56.707Z,24.50
2023-11-23T07:50:59.774Z,22.27
2023-11-23T07:52:01.785Z,23.15
2023-11-23T07:53:04.948Z,24.48
2023-11-23T07:54:07.077Z,23.92
2023-11-23T07:55:12.047Z,25.13
2023-11-23T07:56:16.170Z,25.58
2023-11-23T07:57:20.212Z,25.35
2023-11-23T07:58:22.310Z,23.55
2023-11-23T07:59:25.353Z,27.45
2023-11-23T08:00:27.663Z,29.95
2023-11-23T08:01:30.746Z,28.33
2023-11-23T08:02:32.757Z,23.27
2023-11-23T08:03:35.893Z,31.80
2023-11-23T08:04:39.428Z,22.98
2023-11-23T08:05:43.356Z,22.90
2023-11-23T08:06:45.343Z,44.83
2023-11-23T08:07:47.985Z,26.60
2023-11-23T08:08:51.121Z,23.85
2023-11-23T08:09:53.114Z,26.05
2023-11-23T08:10:55.226Z,22.23
2023-11-23T08:11:58.590Z,20.55
2023-11-23T08:13:00.732Z,21.15
2023-11-23T08:14:03.988Z,26.77
2023-11-23T08:15:08.334Z,23.08
2023-11-23T08:16:10.318Z,24.13
2023-11-23T08:17:14.255Z,21.33
2023-11-23T08:18:16.398Z,24.45
2023-11-23T08:19:19.726Z,23.40
2023-11-23T08:20:25.138Z,24.42
2023-11-23T08:21:28.200Z,23.52
2023-11-23T08:22:30.218Z,24.92
2023-11-23T08:23:33.216Z,24.40
2023-11-23T08:24:35.355Z,27.08
2023-11-23T08:25:38.865Z,24.50
2023-11-23T08:26:40.904Z,26.67
2023-11-23T08:27:43.932Z,24.58
2023-11-23T08:28:45.935Z,24.25
2023-11-23T08:29:48.884Z,28.33
2023-11-23T08:30:50.927Z,24.80
2023-11-23T08:31:53.899Z,25.50
2023-11-23T08:32:57.145Z,23.73
2023-11-23T08:34:00.388Z,23.70
2023-11-23T08:35:04.143Z,23.20
2023-11-23T08:36:09.329Z,27.90
2023-11-23T08:37:11.425Z,23.80
2023-11-23T08:38:14.697Z,33.58
2023-11-23T08:39:16.684Z,25.13
2023-11-23T08:40:27.058Z,24.17
2023-11-23T08:41:34.738Z,22.95
2023-11-23T08:42:40.526Z,32.00
2023-11-23T08:43:42.584Z,26.55
2023-11-23T08:44:49.537Z,25.40
2023-11-23T08:45:55.897Z,22.33
2023-11-23T08:47:03.022Z,23.35
2023-11-23T08:48:07.738Z,25.90
2023-11-23T08:49:12.082Z,28.65
2023-11-23T08:50:15.615Z,25.35
2023-11-23T08:51:22.311Z,24.40
2023-11-23T08:52:42.038Z,27.23
2023-11-23T08:53:45.047Z,26.02
2023-11-23T08:54:47.078Z,28.70
2023-11-23T08:55:51.327Z,24.98
2023-11-23T08:56:54.437Z,22.55
2023-11-23T08:57:57.529Z,25.08
2023-11-23T08:58:59.661Z,25.65
2023-11-23T09:00:04.252Z,25.63
2023-11-23T09:01:11.756Z,29.70
2023-11-23T09:02:20.975Z,30.02
2023-11-23T09:03:27.928Z,24.67
2023-11-23T09:04:43.147Z,26.40
2023-11-23T09:05:47.959Z,28.30
2023-11-23T09:06:52.404Z,28.80
2023-11-23T09:07:54.840Z,25.73
2023-11-23T09:09:01.430Z,24.95
2023-11-23T09:10:03.939Z,27.92
2023-11-23T09:11:07.442Z,29.35
2023-11-23T09:12:09.804Z,27.25
2023-11-23T09:13:13.080Z,25.05
2023-11-23T09:14:15.404Z,26.63
2023-11-23T09:15:24.393Z,24.25
2023-11-23T09:16:27.448Z,23.40
2023-11-23T09:17:36.691Z,25.02
2023-11-23T09:18:44.668Z,27.48
2023-11-23T09:19:51.095Z,37.85
2023-11-23T09:20:53.174Z,26.63
2023-11-23T09:21:59.450Z,30.67
2023-11-23T09:23:09.327Z,25.80
2023-11-23T09:24:16.506Z,26.38
2023-11-23T09:25:21.726Z,25.05
2023-11-23T09:26:24.823Z,31.48
2023-11-23T09:27:26.864Z,27.38
2023-11-23T09:28:30.745Z,26.73
2023-11-23T09:29:32.886Z,29.20
2023-11-23T09:30:35.987Z,40.63
2023-11-23T09:31:38.516Z,26.50
2023-11-23T09:32:41.846Z,26.30
2023-11-23T09:33:43.895Z,26.58
2023-11-23T09:34:46.902Z,26.90
2023-11-23T09:35:49.048Z,22.13
2023-11-23T09:36:52.036Z,55.53
2023-11-23T09:37:55.469Z,27.98
2023-11-23T09:39:01.530Z,25.40
2023-11-23T09:40:06.289Z,27.77
2023-11-23T09:41:12.346Z,28.25
2023-11-23T09:42:17.688Z,28.60
2023-11-23T09:43:21.718Z,23.40
2023-11-23T09:44:24.698Z,23.63
2023-11-23T09:45:27.895Z,31.58
2023-11-23T09:46:30.561Z,26.27
2023-11-23T09:47:33.104Z,24.95
2023-11-23T09:48:39.386Z,31.13
2023-11-23T09:49:42.288Z,28.50
2023-11-23T09:50:45.344Z,23.83
2023-11-23T09:51:49.063Z,33.92
2023-11-23T09:52:53.513Z,31.90
2023-11-23T09:54:00.136Z,22.23
2023-11-23T09:55:08.425Z,27.42
2023-11-23T09:56:10.706Z,24.92
2023-11-23T09:57:13.950Z,28.70
2023-11-23T09:58:15.956Z,25.65
2023-11-23T09:59:18.993Z,21.45
2023-11-23T10:00:22.467Z,23.33
2023-11-23T10:01:27.918Z,23.48
2023-11-23T10:02:33.763Z,20.75
2023-11-23T10:03:37.654Z,26.40
2023-11-23T10:04:39.758Z,25.38
2023-11-23T10:05:44.695Z,23.02
2023-11-23T10:06:46.632Z,24.40
2023-11-23T10:07:50.982Z,19.85
2023-11-23T10:08:52.930Z,20.75
2023-11-23T10:09:57.330Z,21.45
2023-11-23T10:10:59.916Z,22.08
2023-11-23T10:12:03.696Z,22.48
2023-11-23T10:13:06.996Z,23.85
2023-11-23T10:14:10.069Z,24.02
2023-11-23T10:15:12.862Z,31.33
2023-11-23T10:16:16.098Z,20.88
2023-11-23T10:17:18.613Z,19.83
2023-11-23T10:18:21.758Z,20.25
2023-11-23T10:19:24.178Z,19.40
2023-11-23T10:20:27.724Z,24.90
2023-11-23T10:21:29.817Z,23.80
2023-11-23T10:22:32.976Z,19.33
2023-11-23T10:23:34.953Z,21.75
2023-11-23T10:24:50.575Z,19.25
2023-11-23T10:25:56.796Z,21.65
2023-11-23T10:27:00.797Z,27.52
2023-11-23T10:28:04.943Z,20.00
2023-11-23T10:29:10.831Z,22.63
2023-11-23T10:30:14.219Z,18.40
2023-11-23T10:31:26.355Z,27.38
2023-11-23T10:32:32.100Z,21.90
2023-11-23T10:33:36.564Z,20.17
2023-11-23T10:34:41.387Z,19.02
2023-11-23T10:35:51.211Z,21.50
2023-11-23T10:36:53.679Z,18.63
2023-11-23T10:37:56.818Z,24.45
2023-11-23T10:39:01.025Z,20.70
2023-11-23T10:40:05.742Z,18.92
2023-11-23T10:41:21.172Z,20.90
2023-11-23T10:42:24.280Z,21.42
2023-11-23T10:43:27.341Z,21.00
2023-11-23T10:44:31.091Z,19.70
2023-11-23T10:45:35.578Z,19.17
2023-11-23T10:46:40.617Z,17.98
2023-11-23T10:47:43.626Z,19.52
2023-11-23T10:48:47.864Z,20.92
2023-11-23T10:49:50.818Z,21.88
2023-11-23T10:50:57.888Z,17.45
2023-11-23T10:52:01.247Z,18.73
2023-11-23T10:53:05.110Z,18.50
2023-11-23T10:54:07.172Z,20.38
2023-11-23T10:55:11.474Z,21.98
2023-11-23T10:56:18.237Z,19.50
2023-11-23T10:57:22.596Z,18.38
2023-11-23T10:58:25.315Z,17.77
2023-11-23T10:59:29.121Z,19.95
2023-11-23T11:00:31.275Z,17.50
2023-11-23T11:01:34.273Z,19.85
2023-11-23T11:02:37.426Z,18.20
2023-11-23T11:03:40.363Z,19.00
2023-11-23T11:04:43.482Z,20.58
2023-11-23T11:05:49.752Z,29.02
2023-11-23T11:06:55.374Z,20.92
2023-11-23T11:08:01.733Z,17.20
2023-11-23T11:09:14.940Z,18.38
2023-11-23T11:10:16.940Z,20.70
2023-11-23T11:11:22.969Z,18.80
2023-11-23T11:12:25.052Z,17.75
2023-11-23T11:13:28.609Z,20.92
2023-11-23T11:14:34.716Z,24.30
2023-11-23T11:15:39.228Z,18.27
2023-11-23T11:16:41.709Z,19.10
2023-11-23T11:17:47.125Z,19.85
2023-11-23T11:18:53.589Z,21.45
2023-11-23T11:19:56.466Z,26.23
2023-11-23T11:21:09.282Z,18.90
2023-11-23T11:22:13.388Z,29.08
2023-11-23T11:23:16.367Z,21.33
2023-11-23T11:24:19.926Z,17.83
2023-11-23T11:25:23.788Z,19.08
2023-11-23T11:26:28.885Z,17.90
2023-11-23T11:27:32.127Z,25.45
2023-11-23T11:28:34.556Z,22.52
2023-11-23T11:29:37.609Z,28.25
2023-11-23T11:30:39.816Z,23.80
2023-11-23T11:31:43.927Z,17.95
2023-11-23T11:32:47.073Z,16.88
2023-11-23T11:33:53.920Z,20.08
2023-11-23T11:35:00.713Z,20.55
2023-11-23T11:36:03.815Z,18.70
2023-11-23T11:37:08.104Z,20.05
2023-11-23T11:38:15.062Z,22.02
2023-11-23T11:39:17.375Z,34.63
2023-11-23T11:40:21.037Z,18.08
2023-11-23T11:41:23.842Z,18.95
2023-11-23T11:42:30.890Z,17.25
2023-11-23T11:43:34.094Z,19.63
2023-11-23T11:44:37.419Z,18.13
2023-11-23T11:45:39.467Z,18.23
2023-11-23T11:46:42.671Z,18.38
2023-11-23T11:47:44.764Z,15.88
2023-11-23T11:48:47.258Z,25.17
2023-11-23T11:49:51.021Z,18.83
2023-11-23T11:50:57.048Z,21.67
2023-11-23T11:52:01.124Z,28.80
2023-11-23T11:53:03.720Z,17.63
2023-11-23T11:54:08.162Z,15.40
2023-11-23T11:55:10.285Z,17.08
2023-11-23T11:56:14.227Z,17.30
2023-11-23T11:57:19.335Z,17.75
2023-11-23T11:58:22.806Z,25.02
2023-11-23T11:59:29.571Z,24.73
2023-11-23T12:00:35.791Z,24.63
2023-11-23T12:01:38.896Z,15.45
2023-11-23T12:02:41.572Z,20.00
2023-11-23T12:03:45.470Z,20.95
2023-11-23T12:04:57.881Z,25.20
2023-11-23T12:06:00.870Z,17.35
2023-11-23T12:07:15.551Z,20.65
2023-11-23T12:08:18.540Z,20.50
2023-11-23T12:09:31.120Z,15.98
2023-11-23T12:10:42.255Z,17.38
2023-11-23T12:11:44.973Z,14.25
2023-11-23T12:12:48.763Z,18.08
2023-11-23T12:13:54.769Z,19.25
2023-11-23T12:14:58.319Z,22.92
2023-11-23T12:16:00.446Z,17.13
2023-11-23T12:17:09.467Z,14.55
2023-11-23T12:18:14.381Z,15.25
2023-11-23T12:19:18.718Z,17.52
2023-11-23T12:20:21.217Z,14.85
2023-11-23T12:21:24.281Z,16.80
2023-11-23T12:22:27.189Z,15.38
2023-11-23T12:23:30.822Z,14.45
2023-11-23T12:24:33.309Z,20.50
2023-11-23T12:25:36.982Z,14.00
2023-11-23T12:26:39.856Z,15.55
2023-11-23T12:27:43.552Z,15.30
2023-11-23T12:28:47.729Z,15.63
2023-11-23T12:29:53.278Z,20.73
2023-11-23T12:30:55.632Z,23.42
2023-11-23T12:32:00.442Z,14.55
2023-11-23T12:33:03.521Z,15.88
2023-11-23T12:34:05.605Z,26.23
2023-11-23T12:35:10.274Z,21.42
2023-11-23T12:36:13.610Z,16.95
2023-11-23T12:37:16.802Z,16.95
2023-11-23T12:38:18.748Z,17.50
2023-11-23T12:39:21.153Z,17.05
2023-11-23T12:40:26.901Z,16.55
2023-11-23T12:41:31.152Z,17.35
2023-11-23T12:42:37.845Z,19.17
2023-11-23T12:43:39.822Z,20.17
2023-11-23T12:44:42.794Z,17.55
2023-11-23T12:45:46.341Z,15.10
2023-11-23T12:46:50.144Z,13.40
2023-11-23T12:47:52.904Z,18.45
2023-11-23T12:48:55.979Z,31.38
2023-11-23T12:49:58.052Z,37.13
2023-11-23T12:51:01.677Z,22.30
2023-11-23T12:52:04.165Z,12.48
2023-11-23T12:53:07.488Z,14.65
2023-11-23T12:54:09.492Z,15.93
2023-11-23T12:55:11.626Z,17.40
2023-11-23T12:56:15.652Z,14.88
2023-11-23T12:57:17.948Z,13.73
2023-11-23T12:58:23.375Z,14.65
2023-11-23T12:59:26.398Z,13.93
2023-11-23T13:02:09.643Z,13.65
2023-11-23T13:03:12.215Z,15.18
2023-11-23T13:04:20.284Z,13.75
2023-11-23T13:05:23.281Z,18.45
2023-11-23T13:06:28.948Z,14.88
2023-11-23T13:07:31.076Z,21.30
2023-11-23T13:08:35.558Z,14.73
2023-11-23T13:09:37.690Z,13.90
2023-11-23T13:10:41.998Z,14.38
2023-11-23T13:11:43.934Z,16.80
2023-11-23T13:12:47.277Z,16.88
2023-11-23T13:13:49.650Z,15.30
2023-11-23T13:14:52.626Z,11.35
2023-11-23T13:15:54.753Z,15.00
2023-11-23T13:16:57.947Z,11.75
2023-11-23T13:18:01.503Z,13.38
2023-11-23T13:19:16.949Z,14.07
2023-11-23T13:20:28.743Z,17.50
2023-11-23T13:21:31.805Z,12.85
2023-11-23T13:22:33.832Z,20.77
2023-11-23T13:23:38.579Z,13.35
2023-11-23T13:24:40.713Z,16.20
2023-11-23T13:25:46.026Z,13.70
2023-11-23T13:26:49.443Z,13.55
2023-11-23T13:27:57.172Z,13.32
2023-11-23T13:28:59.311Z,13.35
2023-11-23T13:30:02.689Z,12.15
2023-11-23T13:31:05.901Z,12.32
2023-11-23T13:32:11.582Z,38.78
2023-11-23T13:33:21.596Z,12.70
2023-11-23T13:34:24.727Z,11.15
2023-11-23T13:35:28.220Z,13.55
2023-11-23T13:36:35.630Z,13.20
2023-11-23T13:37:37.944Z,14.60
2023-11-23T13:38:41.195Z,12.48
2023-11-23T13:39:43.315Z,14.07
2023-11-23T13:40:48.992Z,20.02
2023-11-23T13:41:52.129Z,13.60
2023-11-23T13:42:54.658Z,13.10
2023-11-23T13:43:57.630Z,12.38